Time;durP1;ratioP1;P1;durP2;ratioP2;P2;SDS_P1;SDS_P2;PMS_P1;PMS_P2;Temp;Humidity;BMP_temperature;BMP_pressure;BME280_temperature;BME280_humidity;BME280_pressure;Samples;Min_cycle;Max_cycle;Signal;HPM_P1;HPM_P2
2023/05/12 00:00:46;;;;;;;0.90;0.70;;;12.60;91.10;;;;;;6124833;23;20021;-72
2023/05/12 00:03:11;;;;;;;1.17;0.93;;;12.50;91.10;;;;;;6125204;23;20006;-72
2023/05/12 00:05:37;;;;;;;0.50;0.50;;;12.50;91.10;;;;;;6124896;23;20020;-72
2023/05/12 00:08:02;;;;;;;0.95;0.70;;;12.50;91.10;;;;;;6124299;23;20061;-72
2023/05/12 00:10:28;;;;;;;1.10;0.73;;;12.50;91.40;;;;;;6124375;23;20108;-72
2023/05/12 00:12:55;;;;;;;2.10;1.20;;;12.50;91.10;;;;;;6125119;23;20017;-72
2023/05/12 00:15:21;;;;;;;1.05;0.93;;;12.50;91.10;;;;;;6125328;23;20327;-72
2023/05/12 00:17:46;;;;;;;1.02;0.88;;;12.50;91.10;;;;;;6124134;23;20010;-72
2023/05/12 00:20:12;;;;;;;0.70;0.70;;;12.40;91.10;;;;;;6125028;23;20010;-72
2023/05/12 00:22:40;;;;;;;1.30;0.85;;;12.40;91.10;;;;;;6124445;23;20009;-73
2023/05/12 00:25:06;;;;;;;1.17;0.88;;;12.40;91.10;;;;;;6074599;23;20064;-72
2023/05/12 00:27:32;;;;;;;0.50;0.50;;;12.40;91.10;;;;;;6098858;23;20014;-72
2023/05/12 00:29:58;;;;;;;0.75;0.70;;;12.40;91.10;;;;;;6098393;23;20037;-72
2023/05/12 00:32:26;;;;;;;0.73;0.70;;;12.40;91.10;;;;;;6125023;23;20453;-72
2023/05/12 00:34:53;;;;;;;1.15;0.90;;;12.30;91.10;;;;;;6124357;23;20010;-72
2023/05/12 00:37:19;;;;;;;1.17;0.95;;;12.30;91.20;;;;;;6124162;23;20014;-72
2023/05/12 00:39:44;;;;;;;0.80;0.80;;;12.30;91.20;;;;;;6124197;23;20020;-73
2023/05/12 00:42:11;;;;;;;0.95;0.77;;;12.30;91.20;;;;;;6124220;23;20014;-73
2023/05/12 00:44:37;;;;;;;1.10;1.00;;;12.30;91.20;;;;;;6098247;23;20014;-73
2023/05/12 00:47:03;;;;;;;1.50;0.90;;;12.30;91.50;;;;;;6124525;23;20068;-72
2023/05/12 00:49:31;;;;;;;0.68;0.68;;;12.30;91.20;;;;;;6124186;23;20006;-72
2023/05/12 00:51:58;;;;;;;1.23;0.77;;;12.40;91.20;;;;;;6121717;23;20010;-73
2023/05/12 00:54:26;;;;;;;1.13;0.80;;;12.30;91.20;;;;;;6123895;23;20006;-73
2023/05/12 00:56:51;;;;;;;1.05;0.70;;;12.30;91.20;;;;;;6123916;23;20010;-73
2023/05/12 00:59:17;;;;;;;0.98;0.80;;;12.30;91.20;;;;;;6123928;23;20093;-72
2023/05/12 01:01:43;;;;;;;0.75;0.57;;;12.30;91.20;;;;;;6124957;23;20020;-73
2023/05/12 01:04:09;;;;;;;0.93;0.70;;;12.30;91.20;;;;;;6124458;23;20013;-74
2023/05/12 01:06:54;;;;;;;1.00;0.90;;;12.30;91.20;;;;;;6125520;23;20038;-73
2023/05/12 01:09:20;;;;;;;1.17;0.63;;;12.20;91.20;;;;;;6102118;23;20037;-73
2023/05/12 01:11:45;;;;;;;0.80;0.70;;;12.30;91.20;;;;;;6099019;23;20415;-72
2023/05/12 01:14:11;;;;;;;0.60;0.60;;;12.30;91.20;;;;;;6124202;23;20041;-72
2023/05/12 01:16:44;;;;;;;0.50;0.50;;;12.30;91.20;;;;;;6124099;23;20072;-73
2023/05/12 01:19:34;;;;;;;0.70;0.50;;;12.20;91.20;;;;;;6123814;23;20013;-73
2023/05/12 01:22:00;;;;;;;1.00;0.60;;;12.20;91.20;;;;;;6123760;23;20334;-73
2023/05/12 01:24:29;;;;;;;0.47;0.47;;;12.20;91.20;;;;;;6123715;23;20010;-73
2023/05/12 01:26:55;;;;;;;0.50;0.50;;;12.20;91.20;;;;;;6123936;23;20021;-73
2023/05/12 01:29:22;;;;;;;0.47;0.47;;;12.20;91.20;;;;;;6098141;23;20021;-73
2023/05/12 01:31:48;;;;;;;0.70;0.50;;;12.20;91.20;;;;;;6125750;23;20010;-73
2023/05/12 01:34:17;;;;;;;0.40;0.40;;;12.20;91.20;;;;;;6122847;23;20005;-73
2023/05/12 01:36:43;;;;;;;0.63;0.45;;;12.20;91.20;;;;;;6125126;23;20009;-73
2023/05/12 01:39:09;;;;;;;0.38;0.32;;;12.20;91.20;;;;;;6125141;23;20071;-74
2023/05/12 01:41:34;;;;;;;0.38;0.38;;;12.20;91.20;;;;;;6125397;23;20019;-73
2023/05/12 01:44:00;;;;;;;0.30;0.30;;;12.30;91.30;;;;;;6099102;23;20032;-73
2023/05/12 01:46:26;;;;;;;0.65;0.40;;;12.20;91.20;;;;;;6125123;23;20069;-73
2023/05/12 01:48:51;;;;;;;0.57;0.45;;;12.20;91.20;;;;;;6124949;23;20060;-73
2023/05/12 01:51:17;;;;;;;0.45;0.43;;;12.20;91.30;;;;;;6125190;23;20013;-73
2023/05/12 01:53:43;;;;;;;0.60;0.40;;;12.10;91.30;;;;;;6124890;23;20326;-73
2023/05/12 01:56:08;;;;;;;0.70;0.70;;;12.20;91.30;;;;;;6125441;23;20006;-73
2023/05/12 01:58:34;;;;;;;0.57;0.30;;;12.10;91.30;;;;;;6125356;23;20014;-74
2023/05/12 02:00:59;;;;;;;1.20;0.73;;;12.10;91.30;;;;;;6099024;23;20014;-73
2023/05/12 02:03:25;;;;;;;0.57;0.50;;;12.20;91.30;;;;;;6125252;23;20936;-73
2023/05/12 02:05:51;;;;;;;0.73;0.57;;;12.10;91.30;;;;;;6099408;23;20013;-73
2023/05/12 02:08:16;;;;;;;0.90;0.70;;;12.10;91.30;;;;;;6125741;23;20458;-73
2023/05/12 02:10:42;;;;;;;0.32;0.32;;;12.10;91.30;;;;;;6125704;23;20025;-73
2023/05/12 02:13:08;;;;;;;0.95;0.55;;;12.10;91.30;;;;;;6099346;23;20438;-74
2023/05/12 02:15:33;;;;;;;0.70;0.40;;;12.10;91.30;;;;;;6125211;23;20069;-74
2023/05/12 02:17:59;;;;;;;0.63;0.50;;;12.20;91.40;;;;;;6125594;23;20085;-73
2023/05/12 02:20:26;;;;;;;0.80;0.55;;;12.10;91.30;;;;;;6125155;23;20034;-73
2023/05/12 02:22:51;;;;;;;1.02;0.68;;;12.10;91.30;;;;;;6125731;23;20020;-73
2023/05/12 02:25:17;;;;;;;1.52;0.80;;;12.10;91.30;;;;;;6125394;23;20084;-74
2023/05/12 02:27:43;;;;;;;0.75;0.60;;;12.20;91.40;;;;;;6124912;23;20530;-73
2023/05/12 02:30:09;;;;;;;0.80;0.60;;;12.10;91.40;;;;;;6125044;23;20017;-73
2023/05/12 02:32:35;;;;;;;0.82;0.60;;;12.10;91.30;;;;;;6125685;23;20006;-74
2023/05/12 02:35:00;;;;;;;1.08;0.80;;;12.10;91.40;;;;;;6125488;23;20061;-73
2023/05/12 02:37:26;;;;;;;0.95;0.80;;;12.30;91.40;;;;;;6099088;23;20041;-73
2023/05/12 02:39:52;;;;;;;0.70;0.70;;;12.10;91.30;;;;;;6098877;23;20006;-73
2023/05/12 02:42:17;;;;;;;1.77;1.10;;;12.10;91.30;;;;;;6125006;23;20057;-74
2023/05/12 02:44:43;;;;;;;1.55;1.10;;;12.10;91.40;;;;;;6124853;23;20009;-74
2023/05/12 02:47:08;;;;;;;1.77;0.93;;;12.10;91.40;;;;;;6125024;23;20014;-73
2023/05/12 02:49:35;;;;;;;1.17;0.80;;;12.10;91.40;;;;;;6099609;23;20016;-73
2023/05/12 02:52:00;;;;;;;1.50;1.05;;;12.10;91.40;;;;;;6125010;23;20022;-74
2023/05/12 02:54:26;;;;;;;1.38;0.80;;;12.10;91.40;;;;;;6124769;23;20040;-73
2023/05/12 02:56:52;;;;;;;1.55;1.02;;;12.10;91.40;;;;;;6099124;23;20036;-73
2023/05/12 02:59:17;;;;;;;1.20;0.75;;;12.10;91.40;;;;;;6124846;23;20057;-73
2023/05/12 03:01:43;;;;;;;1.75;1.00;;;12.10;91.40;;;;;;6125387;23;20431;-73
2023/05/12 03:04:09;;;;;;;1.88;1.08;;;12.10;91.40;;;;;;6125149;23;20331;-73
2023/05/12 03:06:34;;;;;;;1.55;0.88;;;12.10;91.40;;;;;;6125154;23;20010;-73
2023/05/12 03:09:00;;;;;;;1.65;1.10;;;12.10;91.40;;;;;;6125176;23;20018;-73
2023/05/12 03:11:25;;;;;;;2.03;1.27;;;12.10;91.40;;;;;;6125337;23;20438;-73
2023/05/12 03:13:51;;;;;;;1.70;1.05;;;12.10;91.40;;;;;;6098995;23;20065;-73
2023/05/12 03:16:17;;;;;;;2.10;0.98;;;12.20;91.50;;;;;;6098972;23;20367;-73
2023/05/12 03:18:43;;;;;;;2.10;1.20;;;12.20;91.50;;;;;;6125166;23;20014;-73
2023/05/12 03:21:08;;;;;;;2.05;1.00;;;12.20;91.70;;;;;;6099763;23;20072;-73
2023/05/12 03:23:35;;;;;;;1.65;1.15;;;12.20;91.50;;;;;;6125398;23;20014;-74
2023/05/12 03:26:01;;;;;;;2.60;1.30;;;12.20;91.50;;;;;;6125271;23;20006;-73
2023/05/12 03:28:26;;;;;;;2.15;1.33;;;12.20;91.50;;;;;;6125012;23;20338;-73
2023/05/12 03:30:53;;;;;;;2.13;1.23;;;12.20;91.50;;;;;;6125399;23;20066;-74
2023/05/12 03:33:18;;;;;;;1.92;1.15;;;12.20;91.50;;;;;;6125422;23;20006;-74
2023/05/12 03:35:44;;;;;;;1.35;1.00;;;12.20;91.50;;;;;;6097771;23;20057;-73
2023/05/12 03:38:09;;;;;;;1.92;1.00;;;12.20;91.50;;;;;;6098995;23;20009;-74
2023/05/12 03:40:35;;;;;;;2.47;1.17;;;12.20;91.50;;;;;;6124590;23;20089;-73
2023/05/12 03:43:01;;;;;;;1.73;1.15;;;12.30;91.50;;;;;;6125480;23;20453;-73
2023/05/12 03:45:26;;;;;;;1.70;1.27;;;12.20;91.50;;;;;;6125473;23;20018;-73
2023/05/12 03:47:52;;;;;;;1.73;1.20;;;12.30;91.50;;;;;;6125545;23;20020;-73
2023/05/12 03:50:17;;;;;;;2.17;1.27;;;12.30;91.50;;;;;;6124694;23;20316;-73
2023/05/12 03:52:43;;;;;;;2.50;1.40;;;12.20;91.50;;;;;;6098471;23;20005;-73
2023/05/12 03:55:09;;;;;;;2.65;1.48;;;12.30;91.50;;;;;;6124713;23;20006;-73
2023/05/12 03:57:35;;;;;;;3.15;1.30;;;12.30;91.50;;;;;;6125137;23;20014;-74
2023/05/12 04:00:02;;;;;;;2.67;1.58;;;12.30;91.50;;;;;;6125307;23;20006;-73
2023/05/12 04:02:28;;;;;;;4.25;1.70;;;12.40;91.50;;;;;;6124929;23;20439;-74
2023/05/12 04:04:53;;;;;;;2.28;1.40;;;12.40;91.50;;;;;;6124637;23;20076;-74
2023/05/12 04:07:19;;;;;;;2.47;1.60;;;12.40;91.50;;;;;;6124639;23;20060;-73
2023/05/12 04:09:45;;;;;;;2.38;1.27;;;12.40;91.50;;;;;;6124987;23;20072;-74
2023/05/12 04:12:11;;;;;;;2.97;1.48;;;12.40;91.50;;;;;;6125167;23;20014;-73
2023/05/12 04:14:37;;;;;;;2.40;1.20;;;12.50;91.50;;;;;;6124933;23;20034;-73
2023/05/12 04:17:03;;;;;;;2.25;1.52;;;12.50;91.50;;;;;;6095903;23;20382;-73
2023/05/12 04:19:29;;;;;;;2.90;1.58;;;12.50;91.50;;;;;;6121669;23;20041;-73
2023/05/12 04:21:54;;;;;;;2.47;1.50;;;12.50;91.50;;;;;;6124858;23;20022;-73
2023/05/12 04:24:20;;;;;;;2.50;1.55;;;12.60;91.50;;;;;;6098699;23;20438;-73
2023/05/12 04:26:46;;;;;;;3.70;1.73;;;12.60;91.50;;;;;;6124726;23;20020;-73
2023/05/12 04:29:12;;;;;;;2.75;1.58;;;12.60;91.50;;;;;;6124517;23;20363;-73
2023/05/12 04:31:37;;;;;;;3.08;1.60;;;12.60;91.50;;;;;;6124358;23;20010;-73
2023/05/12 04:34:03;;;;;;;2.97;1.85;;;12.70;91.50;;;;;;6124928;23;20010;-74
2023/05/12 04:36:29;;;;;;;3.22;1.90;;;12.70;91.50;;;;;;6124969;23;20010;-73
2023/05/12 04:38:54;;;;;;;3.83;1.77;;;12.70;91.50;;;;;;6097929;23;20431;-73
2023/05/12 04:41:21;;;;;;;3.28;1.70;;;12.70;91.50;;;;;;6124654;23;20093;-73
2023/05/12 04:43:46;;;;;;;4.38;2.20;;;12.70;91.40;;;;;;6124971;23;20085;-72
2023/05/12 04:46:12;;;;;;;3.70;1.98;;;12.70;91.40;;;;;;6098445;23;20053;-72
2023/05/12 04:48:40;;;;;;;3.70;2.00;;;12.70;91.40;;;;;;6074192;23;20024;-72
2023/05/12 04:51:06;;;;;;;4.35;2.20;;;12.70;91.40;;;;;;6099018;23;20401;-73
2023/05/12 04:53:33;;;;;;;3.80;2.03;;;12.90;91.40;;;;;;6124247;23;20044;-73
2023/05/12 04:55:59;;;;;;;3.88;2.17;;;12.90;91.40;;;;;;6124227;23;20014;-72
2023/05/12 04:58:25;;;;;;;3.60;2.05;;;12.90;91.40;;;;;;6124223;23;20061;-73
2023/05/12 05:00:51;;;;;;;4.47;2.53;;;12.90;91.40;;;;;;6125109;23;20013;-73
2023/05/12 05:03:17;;;;;;;3.97;2.10;;;12.90;91.40;;;;;;6125226;23;20017;-72
2023/05/12 05:05:43;;;;;;;4.60;2.58;;;13.00;91.40;;;;;;6075783;23;20002;-72
2023/05/12 05:08:08;;;;;;;3.95;2.35;;;13.00;91.40;;;;;;6125736;23;20064;-73
2023/05/12 05:10:34;;;;;;;3.55;2.10;;;13.00;91.40;;;;;;6100374;23;20326;-72
2023/05/12 05:13:00;;;;;;;3.90;2.10;;;13.10;91.40;;;;;;6125606;23;20048;-72
2023/05/12 05:15:25;;;;;;;4.28;2.20;;;13.20;91.40;;;;;;6099732;23;20017;-72
2023/05/12 05:17:51;;;;;;;4.07;2.53;;;13.10;91.40;;;;;;6125889;23;20561;-73
2023/05/12 05:20:17;;;;;;;4.30;2.42;;;13.20;91.40;;;;;;6126051;23;20006;-72
2023/05/12 05:22:43;;;;;;;4.25;2.00;;;13.20;91.40;;;;;;6125566;23;20084;-73
2023/05/12 05:25:09;;;;;;;3.83;2.25;;;13.20;91.30;;;;;;6125231;23;20089;-72
2023/05/12 05:27:35;;;;;;;3.70;2.10;;;13.20;91.30;;;;;;6099403;23;20382;-72
2023/05/12 05:30:00;;;;;;;4.63;2.60;;;13.30;91.40;;;;;;6125316;23;20002;-73
2023/05/12 05:32:26;;;;;;;4.10;2.40;;;13.30;91.30;;;;;;6125336;23;20449;-72
2023/05/12 05:34:52;;;;;;;3.80;2.20;;;13.30;91.30;;;;;;6120245;23;20006;-72
2023/05/12 05:37:17;;;;;;;4.78;2.60;;;13.40;91.60;;;;;;6125337;23;20014;-73
2023/05/12 05:39:44;;;;;;;4.55;2.35;;;13.40;91.30;;;;;;6125884;23;20370;-73
2023/05/12 05:42:09;;;;;;;3.45;2.05;;;13.50;91.30;;;;;;6125242;23;20383;-73
2023/05/12 05:44:35;;;;;;;4.75;2.53;;;13.50;91.30;;;;;;6125323;23;20092;-73
2023/05/12 05:47:01;;;;;;;4.00;2.35;;;13.60;91.30;;;;;;6099058;23;20431;-73
2023/05/12 05:49:27;;;;;;;3.38;2.10;;;13.50;91.20;;;;;;6125437;23;20044;-72
2023/05/12 05:51:53;;;;;;;2.97;1.90;;;13.60;91.20;;;;;;6125296;23;20021;-73
2023/05/12 05:54:19;;;;;;;3.47;2.17;;;13.70;91.20;;;;;;6125840;23;20014;-73
2023/05/12 05:56:44;;;;;;;3.95;2.38;;;13.70;91.20;;;;;;6125590;23;20014;-73
2023/05/12 05:59:10;;;;;;;3.75;2.30;;;13.70;91.20;;;;;;6099941;23;20326;-73
2023/05/12 06:01:35;;;;;;;4.45;2.47;;;13.80;91.20;;;;;;6099465;23;20009;-73
2023/05/12 06:04:01;;;;;;;3.45;1.98;;;13.80;91.10;;;;;;6125247;23;20041;-73
2023/05/12 06:06:28;;;;;;;3.05;1.80;;;13.90;91.10;;;;;;6125839;23;20017;-73
2023/05/12 06:08:54;;;;;;;4.65;2.35;;;13.90;91.10;;;;;;6100019;23;20014;-73
2023/05/12 06:11:20;;;;;;;4.50;2.60;;;13.90;91.10;;;;;;6125559;23;20362;-73
2023/05/12 06:13:46;;;;;;;5.10;2.65;;;13.90;91.10;;;;;;6075361;23;20013;-73
2023/05/12 06:16:11;;;;;;;3.97;2.30;;;14.00;91.10;;;;;;6125390;23;20098;-74
2023/05/12 06:18:37;;;;;;;3.33;2.17;;;14.00;91.10;;;;;;6125151;23;19998;-73
2023/05/12 06:21:04;;;;;;;4.05;2.03;;;14.00;91.00;;;;;;6125722;23;20009;-74
2023/05/12 06:23:30;;;;;;;3.78;1.95;;;14.10;91.10;;;;;;6125362;23;20103;-73
2023/05/12 06:25:55;;;;;;;4.57;2.40;;;14.10;91.10;;;;;;6125245;23;20027;-73
2023/05/12 06:28:21;;;;;;;3.40;2.10;;;14.10;91.10;;;;;;6125898;23;20058;-73
2023/05/12 06:30:46;;;;;;;4.38;2.40;;;14.10;91.00;;;;;;6125976;23;20431;-72
2023/05/12 06:33:12;;;;;;;4.95;2.78;;;14.10;91.10;;;;;;6072542;23;20386;-74
2023/05/12 06:35:38;;;;;;;3.95;2.53;;;14.20;91.00;;;;;;6125761;23;20446;-74
2023/05/12 06:38:03;;;;;;;4.38;2.55;;;14.20;91.00;;;;;;6125181;23;20010;-73
2023/05/12 06:40:29;;;;;;;4.80;2.70;;;14.20;91.00;;;;;;6099559;23;20010;-74
2023/05/12 06:42:54;;;;;;;4.40;2.53;;;14.30;91.00;;;;;;6099356;23;20338;-72
2023/05/12 06:45:22;;;;;;;4.10;2.72;;;14.30;91.00;;;;;;6125119;23;20382;-73
2023/05/12 06:47:48;;;;;;;4.45;2.65;;;14.40;91.00;;;;;;6125280;23;20438;-72
2023/05/12 06:50:15;;;;;;;4.93;2.70;;;14.40;90.90;;;;;;6099290;23;20456;-73
2023/05/12 06:52:42;;;;;;;3.72;2.35;;;14.50;90.90;;;;;;6125266;23;20010;-73
2023/05/12 06:55:08;;;;;;;5.30;3.00;;;14.50;90.90;;;;;;6123510;23;20010;-72
2023/05/12 06:57:34;;;;;;;4.40;2.38;;;14.60;90.90;;;;;;6125032;23;20058;-72
2023/05/12 07:00:01;;;;;;;4.18;2.60;;;14.60;90.80;;;;;;6125587;23;20098;-72
2023/05/12 07:02:28;;;;;;;2.80;2.00;;;14.60;90.80;;;;;;6125076;23;20096;-73
2023/05/12 07:04:53;;;;;;;4.22;2.58;;;14.70;90.80;;;;;;6125017;23;20017;-72
2023/05/12 07:07:19;;;;;;;3.45;2.30;;;14.80;90.80;;;;;;6125159;23;20018;-73
2023/05/12 07:09:45;;;;;;;3.40;2.15;;;14.90;90.80;;;;;;6125127;23;20048;-72
2023/05/12 07:12:10;;;;;;;4.05;2.47;;;14.80;90.70;;;;;;6125223;23;20014;-72
2023/05/12 07:14:36;;;;;;;2.90;1.85;;;14.90;90.70;;;;;;6124904;23;20069;-72
2023/05/12 07:17:02;;;;;;;3.63;2.28;;;15.00;90.70;;;;;;6124982;23;20009;-72
2023/05/12 07:19:28;;;;;;;2.85;1.52;;;15.00;90.70;;;;;;6125209;23;20002;-72
2023/05/12 07:21:54;;;;;;;3.63;2.15;;;15.10;90.70;;;;;;6124727;23;20024;-72
2023/05/12 07:24:19;;;;;;;3.28;1.90;;;15.10;90.60;;;;;;6124790;23;20439;-73
2023/05/12 07:26:46;;;;;;;3.65;2.03;;;15.20;90.60;;;;;;6125534;23;20041;-74
2023/05/12 07:29:11;;;;;;;2.78;1.80;;;15.40;90.60;;;;;;6124827;23;20009;-72
2023/05/12 07:31:37;;;;;;;3.63;2.05;;;15.40;90.40;;;;;;6125256;23;20014;-73
2023/05/12 07:34:03;;;;;;;3.40;2.10;;;15.50;90.40;;;;;;6124926;23;20013;-74
2023/05/12 07:36:28;;;;;;;3.50;2.00;;;15.50;90.30;;;;;;6125519;23;20029;-74
2023/05/12 07:39:01;;;;;;;2.13;1.60;;;15.60;90.30;;;;;;6124211;23;20017;-73
2023/05/12 07:42:03;;;;;;;2.40;1.58;;;15.70;90.30;;;;;;6097068;23;20064;-73
2023/05/12 07:44:32;;;;;;;2.45;1.70;;;15.80;90.20;;;;;;6034332;23;20015;-74
2023/05/12 07:54:25;;;;;;;2.17;1.30;;;16.30;89.80;;;;;;5840000;24;20480;-73
2023/05/12 07:56:54;;;;;;;1.85;1.33;;;16.40;89.60;;;;;;5814792;24;20453;-73
2023/05/12 07:59:40;;;;;;;1.75;1.30;;;16.50;89.50;;;;;;5815748;24;20104;-72
2023/05/12 08:02:36;;;;;;;2.30;1.50;;;16.60;89.40;;;;;;5788545;24;20034;-73
2023/05/12 08:05:13;;;;;;;2.05;1.50;;;16.80;89.20;;;;;;5763272;24;20050;-74
2023/05/12 08:07:49;;;;;;;1.92;1.17;;;16.90;89.00;;;;;;5789718;24;20015;-72
2023/05/12 08:10:18;;;;;;;2.13;1.55;;;17.00;88.70;;;;;;5767360;24;20038;-74
2023/05/12 08:12:46;;;;;;;2.53;1.40;;;17.00;88.70;;;;;;5767279;24;20031;-73
2023/05/12 08:15:18;;;;;;;3.05;1.60;;;17.00;89.20;;;;;;5789053;24;20023;-73
2023/05/12 08:18:02;;;;;;;2.45;1.65;;;17.20;88.50;;;;;;5789543;24;20016;-76
2023/05/12 08:20:31;;;;;;;2.90;1.83;;;17.30;88.40;;;;;;5810495;24;20022;-75
2023/05/12 08:22:59;;;;;;;2.33;1.70;;;17.40;88.30;;;;;;5870583;24;20045;-75
2023/05/12 08:25:29;;;;;;;2.15;1.40;;;17.50;88.10;;;;;;5843322;24;20186;-75
2023/05/12 08:27:56;;;;;;;2.30;1.60;;;17.70;87.90;;;;;;5830013;24;20091;-75
2023/05/12 08:30:21;;;;;;;3.08;1.60;;;17.70;87.70;;;;;;5854130;24;20533;-74
2023/05/12 08:32:47;;;;;;;2.03;1.50;;;17.70;87.40;;;;;;6024741;23;20018;-74
2023/05/12 08:35:13;;;;;;;1.67;1.30;;;17.80;87.50;;;;;;6069153;23;20021;-74
2023/05/12 08:37:38;;;;;;;1.90;1.42;;;17.70;87.40;;;;;;6092490;23;20011;-74
2023/05/12 08:40:16;;;;;;;2.00;1.40;;;17.80;87.50;;;;;;6093385;23;20098;-74
2023/05/12 08:42:54;;;;;;;2.20;1.27;;;17.90;87.40;;;;;;6066240;23;20018;-74
2023/05/12 08:45:21;;;;;;;1.45;1.20;;;18.00;87.40;;;;;;6091557;23;20443;-74
2023/05/12 08:47:49;;;;;;;1.20;1.08;;;18.10;87.20;;;;;;6093301;23;20011;-74
2023/05/12 08:50:16;;;;;;;1.20;1.10;;;18.10;86.90;;;;;;6092937;23;20093;-74
2023/05/12 08:52:42;;;;;;;0.90;0.90;;;18.00;87.00;;;;;;6093050;23;20018;-74
2023/05/12 08:55:08;;;;;;;1.17;1.08;;;18.00;87.20;;;;;;6068620;23;20021;-74
2023/05/12 08:57:36;;;;;;;0.95;0.82;;;18.00;87.20;;;;;;6122571;23;20087;-74
2023/05/12 09:00:04;;;;;;;0.73;0.73;;;18.10;87.30;;;;;;6125321;23;20030;-74
2023/05/12 09:02:30;;;;;;;0.80;0.80;;;18.10;87.30;;;;;;6124443;23;20117;-73
2023/05/12 09:04:56;;;;;;;1.00;0.90;;;17.90;87.10;;;;;;6124549;23;20422;-74
2023/05/12 09:07:23;;;;;;;1.10;0.90;;;18.00;87.20;;;;;;6098898;23;20008;-74
2023/05/12 09:09:55;;;;;;;1.00;0.70;;;18.00;87.20;;;;;;6099510;23;20006;-73
2023/05/12 09:12:21;;;;;;;0.68;0.68;;;18.10;87.20;;;;;;6124100;23;20037;-73
2023/05/12 09:14:55;;;;;;;0.70;0.68;;;18.20;87.10;;;;;;6099105;23;20026;-73
2023/05/12 09:17:20;;;;;;;1.00;0.90;;;18.30;86.80;;;;;;6124562;23;20005;-73
2023/05/12 09:19:46;;;;;;;0.95;0.70;;;18.30;86.50;;;;;;6096189;23;20002;-73
2023/05/12 09:22:13;;;;;;;0.68;0.60;;;18.40;86.40;;;;;;6098382;23;20351;-73
2023/05/12 09:24:39;;;;;;;0.60;0.55;;;18.40;86.30;;;;;;6124200;23;20497;-73
2023/05/12 09:27:06;;;;;;;1.67;0.70;;;18.50;86.30;;;;;;6124449;23;20010;-73
2023/05/12 09:29:33;;;;;;;0.88;0.60;;;18.50;86.30;;;;;;6124133;23;20009;-72
2023/05/12 09:32:02;;;;;;;0.57;0.57;;;18.50;86.30;;;;;;6124439;23;20021;-72
2023/05/12 09:34:30;;;;;;;0.40;0.40;;;18.50;86.20;;;;;;6123910;23;20434;-72
2023/05/12 09:37:04;;;;;;;0.85;0.82;;;18.60;86.20;;;;;;6123929;23;20021;-73
2023/05/12 09:39:30;;;;;;;0.68;0.68;;;18.60;85.90;;;;;;6123935;23;20010;-72
2023/05/12 09:41:56;;;;;;;0.50;0.50;;;18.60;85.90;;;;;;6124209;23;20010;-72
2023/05/12 09:44:23;;;;;;;0.50;0.50;;;18.60;85.80;;;;;;6124144;23;20014;-72
2023/05/12 09:46:50;;;;;;;0.70;0.70;;;18.70;85.90;;;;;;6121608;23;20010;-73
2023/05/12 09:49:20;;;;;;;0.55;0.55;;;18.60;85.80;;;;;;6124382;23;20081;-72
2023/05/12 09:51:46;;;;;;;0.43;0.43;;;18.70;85.90;;;;;;6064799;23;20018;-73
2023/05/12 09:54:12;;;;;;;0.60;0.60;;;18.70;85.90;;;;;;6040915;23;20073;-73
2023/05/12 09:56:39;;;;;;;0.50;0.50;;;18.70;85.70;;;;;;6041612;23;20041;-72
2023/05/12 09:59:05;;;;;;;0.73;0.70;;;18.70;85.70;;;;;;6017749;23;20014;-72
2023/05/12 10:01:31;;;;;;;0.57;0.57;;;18.60;85.50;;;;;;6041183;23;20491;-72
2023/05/12 10:03:58;;;;;;;0.60;0.60;;;18.60;85.60;;;;;;6065224;23;20014;-72
2023/05/12 10:06:29;;;;;;;0.50;0.50;;;18.70;85.70;;;;;;6064677;23;20018;-72
2023/05/12 10:09:05;;;;;;;0.90;0.80;;;18.60;85.60;;;;;;6062415;23;20441;-72
2023/05/12 10:11:31;;;;;;;0.50;0.50;;;18.70;85.70;;;;;;6064498;23;20026;-72
2023/05/12 10:13:59;;;;;;;0.70;0.70;;;18.70;85.50;;;;;;6064745;23;20015;-73
2023/05/12 10:16:27;;;;;;;0.65;0.65;;;18.70;85.20;;;;;;6064734;23;20014;-71
2023/05/12 10:18:53;;;;;;;1.17;0.70;;;18.70;85.10;;;;;;6064643;23;20011;-72
2023/05/12 10:21:20;;;;;;;0.60;0.60;;;18.80;85.10;;;;;;6064450;23;20062;-72
2023/05/12 10:23:47;;;;;;;0.65;0.63;;;18.80;85.00;;;;;;6119035;23;20025;-72
2023/05/12 10:26:14;;;;;;;0.57;0.57;;;18.90;84.80;;;;;;6125128;23;20059;-71
2023/05/12 10:28:41;;;;;;;0.60;0.60;;;18.90;84.60;;;;;;6120141;23;20002;-72
2023/05/12 10:31:08;;;;;;;0.63;0.63;;;18.90;84.50;;;;;;6125416;23;20038;-72
2023/05/12 10:33:34;;;;;;;0.40;0.40;;;18.90;84.40;;;;;;6125447;23;20014;-72
2023/05/12 10:36:00;;;;;;;0.60;0.60;;;19.00;84.20;;;;;;6125174;23;20449;-72
2023/05/12 10:38:25;;;;;;;0.52;0.52;;;19.00;83.90;;;;;;6124925;23;20001;-73
2023/05/12 10:40:58;;;;;;;0.50;0.50;;;19.20;83.80;;;;;;6125701;23;20053;-73
2023/05/12 10:43:27;;;;;;;0.65;0.65;;;19.20;83.40;;;;;;6125085;23;20099;-72
2023/05/12 10:46:20;;;;;;;0.60;0.60;;;19.30;83.20;;;;;;6125773;23;20029;-72
2023/05/12 10:48:56;;;;;;;0.50;0.50;;;19.40;82.80;;;;;;6099382;23;20009;-72
2023/05/12 10:51:32;;;;;;;0.70;0.68;;;19.40;82.80;;;;;;6125571;23;20032;-73
2023/05/12 10:54:01;;;;;;;0.73;0.73;;;19.50;82.60;;;;;;6125690;23;20021;-73
2023/05/12 10:56:29;;;;;;;0.57;0.57;;;19.70;82.50;;;;;;6125689;23;20010;-73
2023/05/12 10:59:22;;;;;;;0.65;0.65;;;19.80;82.20;;;;;;6125019;23;20014;-73
2023/05/12 11:02:00;;;;;;;0.70;0.70;;;19.90;81.90;;;;;;6125437;23;20036;-73
2023/05/12 11:04:52;;;;;;;0.73;0.70;;;19.90;81.50;;;;;;6125619;23;20001;-73
2023/05/12 11:07:25;;;;;;;0.50;0.50;;;19.90;82.20;;;;;;6125066;23;20017;-73
2023/05/12 11:09:52;;;;;;;0.70;0.70;;;20.00;81.60;;;;;;6099591;23;20017;-73
2023/05/12 11:12:18;;;;;;;1.02;0.95;;;20.10;81.60;;;;;;6125195;23;20047;-74
2023/05/12 11:14:45;;;;;;;0.70;0.70;;;20.10;81.30;;;;;;6125404;23;20021;-73
2023/05/12 11:17:11;;;;;;;0.50;0.50;;;20.30;81.00;;;;;;6125472;23;20438;-73
2023/05/12 11:19:38;;;;;;;0.70;0.70;;;20.30;80.90;;;;;;6125316;23;20462;-73
2023/05/12 11:22:06;;;;;;;0.80;0.80;;;20.30;80.60;;;;;;6072580;23;20108;-73
2023/05/12 11:24:32;;;;;;;0.73;0.70;;;20.40;80.50;;;;;;6125371;23;20010;-73
2023/05/12 11:26:58;;;;;;;1.08;0.88;;;20.30;80.40;;;;;;6124787;23;20025;-73
2023/05/12 11:29:23;;;;;;;0.63;0.63;;;20.40;80.40;;;;;;6125405;23;20020;-73
2023/05/12 11:31:50;;;;;;;0.70;0.70;;;20.40;80.20;;;;;;6122115;23;20038;-74
2023/05/12 11:34:21;;;;;;;0.50;0.50;;;20.40;80.00;;;;;;6129346;23;20012;-75
2023/05/12 11:36:47;;;;;;;;;;;20.40;80.10;;;;;;6126761;23;19998;-74
2023/05/12 11:39:17;;;;;;;0.70;0.60;;;20.50;80.20;;;;;;6125071;23;19901;-75
2023/05/12 11:41:43;;;;;;;0.63;0.63;;;20.60;79.90;;;;;;6098862;23;20002;-76
2023/05/12 11:44:18;;;;;;;0.60;0.60;;;20.70;79.60;;;;;;6125905;23;20002;-75
2023/05/12 11:47:00;;;;;;;0.60;0.60;;;20.60;79.40;;;;;;6124702;23;20014;-75
2023/05/12 11:49:29;;;;;;;0.55;0.55;;;20.60;79.40;;;;;;6099704;23;20014;-72
2023/05/12 11:51:58;;;;;;;0.80;0.80;;;20.70;79.50;;;;;;6096696;23;20040;-76
2023/05/12 11:54:26;;;;;;;0.60;0.60;;;20.70;79.50;;;;;;6122415;23;20011;-74
2023/05/12 11:56:54;;;;;;;0.77;0.77;;;20.80;79.40;;;;;;6122198;23;20006;-75
2023/05/12 11:59:34;;;;;;;0.75;0.73;;;20.90;79.00;;;;;;6098787;23;20438;-73
2023/05/12 12:02:02;;;;;;;0.63;0.63;;;21.00;78.70;;;;;;6125146;23;20014;-75
2023/05/12 12:04:37;;;;;;;0.70;0.70;;;21.00;78.60;;;;;;6125024;23;20014;-74
2023/05/12 12:07:04;;;;;;;0.68;0.68;;;21.00;78.60;;;;;;6124918;23;20033;-74
2023/05/12 12:09:31;;;;;;;0.80;0.70;;;21.00;78.60;;;;;;6125226;23;20013;-74
2023/05/12 12:11:58;;;;;;;0.70;0.70;;;20.90;78.70;;;;;;6124369;23;20014;-74
2023/05/12 12:14:23;;;;;;;0.70;0.70;;;20.90;78.70;;;;;;6124086;23;20013;-76
2023/05/12 12:16:49;;;;;;;0.90;0.77;;;20.90;78.60;;;;;;6124482;23;20010;-73
2023/05/12 12:19:15;;;;;;;1.00;0.90;;;21.00;78.50;;;;;;6098794;23;20338;-74
2023/05/12 12:21:41;;;;;;;0.68;0.68;;;20.90;78.20;;;;;;6099041;23;20017;-73
2023/05/12 12:24:07;;;;;;;0.73;0.70;;;20.90;78.10;;;;;;6124604;23;20014;-73
2023/05/12 12:26:33;;;;;;;1.13;0.80;;;20.90;78.10;;;;;;6125893;23;20683;-75
2023/05/12 12:28:58;;;;;;;0.77;0.77;;;20.90;77.90;;;;;;6128594;23;20434;-75
2023/05/12 12:31:29;;;;;;;0.75;0.73;;;21.00;77.80;;;;;;6101353;23;20465;-75
2023/05/12 12:33:54;;;;;;;0.70;0.70;;;21.00;77.50;;;;;;6132759;23;20403;-75
2023/05/12 12:36:20;;;;;;;0.50;0.50;;;21.00;77.40;;;;;;6103441;23;20012;-75
2023/05/12 12:38:46;;;;;;;0.75;0.75;;;21.10;77.50;;;;;;6100336;23;20012;-75
2023/05/12 12:41:12;;;;;;;0.70;0.70;;;21.20;77.20;;;;;;6125075;23;20006;-75
2023/05/12 12:43:38;;;;;;;0.80;0.80;;;21.20;76.90;;;;;;6125153;23;20029;-75
2023/05/12 12:46:04;;;;;;;0.70;0.70;;;21.30;76.80;;;;;;6125940;23;20061;-76
2023/05/12 12:48:31;;;;;;;0.82;0.82;;;21.40;76.50;;;;;;6126977;23;20013;-75
2023/05/12 12:50:56;;;;;;;0.73;0.70;;;21.50;76.40;;;;;;6127701;23;20092;-75
2023/05/12 12:53:22;;;;;;;0.77;0.77;;;21.40;76.10;;;;;;6125114;23;20018;-75
2023/05/12 12:55:48;;;;;;;0.80;0.80;;;21.50;76.00;;;;;;6126436;23;20006;-75